createdAt,value
2018-04-16T00:00:11.627Z,11.80
2018-04-16T00:05:15.197Z,11.70
2018-04-16T00:10:18.387Z,11.60
2018-04-16T00:15:22.323Z,11.50
2018-04-16T00:20:26.639Z,11.40
2018-04-16T00:25:29.848Z,11.40
2018-04-16T00:30:33.452Z,11.30
2018-04-16T00:35:42.102Z,11.40
2018-04-16T00:40:50.739Z,11.40
2018-04-16T00:45:59.605Z,11.30
2018-04-16T00:51:09.523Z,11.20
2018-04-16T00:56:18.995Z,11.10
2018-04-16T01:01:27.712Z,11.10
2018-04-16T01:06:37.211Z,11.00
2018-04-16T01:11:45.860Z,11.00
2018-04-16T01:16:55.357Z,10.90
2018-04-16T01:22:04.352Z,10.90
2018-04-16T01:27:13.815Z,10.90
2018-04-16T01:32:22.935Z,10.80
2018-04-16T01:37:31.643Z,10.80
2018-04-16T01:42:40.444Z,10.60
2018-04-16T01:47:49.484Z,10.50
2018-04-16T01:52:58.993Z,10.40
2018-04-16T01:58:07.665Z,10.50
2018-04-16T02:03:17.495Z,10.40
2018-04-16T02:08:26.402Z,10.30
2018-04-16T02:13:36.243Z,10.30
2018-04-16T02:18:44.985Z,10.10
2018-04-16T02:23:53.547Z,10.10
2018-04-16T02:29:02.690Z,10.00
2018-04-16T02:34:12.341Z,9.90
2018-04-16T02:39:21.843Z,9.80
2018-04-16T02:44:30.561Z,9.80
2018-04-16T02:49:39.285Z,9.60
2018-04-16T02:54:48.371Z,9.60
2018-04-16T02:59:56.904Z,9.50
2018-04-16T03:05:06.081Z,9.40
2018-04-16T03:10:14.656Z,9.40
2018-04-16T03:15:23.608Z,9.40
2018-04-16T03:20:33.440Z,9.40
2018-04-16T03:25:42.066Z,9.30
2018-04-16T03:30:51.580Z,9.30
2018-04-16T03:36:00.180Z,9.20
2018-04-16T03:41:08.847Z,9.10
2018-04-16T03:52:13.674Z,9.00
2018-04-16T03:57:16.783Z,8.90
2018-04-16T04:02:19.916Z,8.90
2018-04-16T04:07:23.088Z,8.80
2018-04-16T04:12:26.283Z,8.70
2018-04-16T04:17:29.509Z,8.80
2018-04-16T04:22:51.707Z,8.70
2018-04-16T04:28:12.701Z,8.60
2018-04-16T04:33:15.919Z,8.60
2018-04-16T04:38:19.455Z,8.60
2018-04-16T04:43:22.676Z,8.50
2018-04-16T04:53:30.250Z,8.50
2018-04-16T04:58:33.771Z,8.50
2018-04-16T05:03:36.951Z,8.60
2018-04-16T05:08:40.834Z,8.70
2018-04-16T05:13:45.107Z,9.00
2018-04-16T05:18:48.174Z,9.20
2018-04-16T05:23:52.011Z,9.50
2018-04-16T05:28:55.110Z,9.80
2018-04-16T05:33:58.202Z,10.00
2018-04-16T05:39:01.287Z,10.30
2018-04-16T05:44:05.891Z,10.40
2018-04-16T05:49:08.968Z,10.60
2018-04-16T06:04:21.342Z,12.40
2018-04-16T06:09:25.605Z,12.50
2018-04-16T06:19:33.106Z,12.80
2018-04-16T06:24:37.729Z,13.60
2018-04-16T06:29:40.809Z,14.40
2018-04-16T06:39:48.350Z,16.40
2018-04-16T06:44:52.952Z,16.10
2018-04-16T06:55:00.882Z,15.10
2018-04-16T07:00:04.029Z,14.80
2018-04-16T07:05:07.128Z,15.40
2018-04-16T07:10:11.000Z,15.60
2018-04-16T07:15:14.817Z,15.20
2018-04-16T07:20:17.900Z,15.70
2018-04-16T07:25:23.035Z,15.70
2018-04-16T07:30:26.809Z,15.70
2018-04-16T07:35:29.886Z,15.30
2018-04-16T07:40:34.346Z,15.10
2018-04-16T07:45:37.825Z,15.10
2018-04-16T07:50:41.622Z,15.50
2018-04-16T08:00:50.009Z,16.70
2018-04-16T08:05:54.233Z,16.90
2018-04-16T08:16:02.194Z,16.40
2018-04-16T08:21:06.158Z,16.80
2018-04-16T08:26:10.983Z,17.60
2018-04-16T08:31:14.074Z,18.30
2018-04-16T08:36:18.906Z,19.60
2018-04-16T08:41:22.456Z,19.90
2018-04-16T08:51:30.810Z,19.00
2018-04-16T09:01:39.523Z,18.70
2018-04-16T09:06:44.103Z,18.30
2018-04-16T09:11:47.641Z,17.80
2018-04-16T09:21:56.448Z,18.00
2018-04-16T09:27:00.320Z,18.20
2018-04-16T09:32:03.397Z,18.50
2018-04-16T09:37:07.618Z,18.90
2018-04-16T09:42:11.462Z,20.20
2018-04-16T09:47:15.306Z,20.10
2018-04-16T09:52:19.533Z,20.10
2018-04-16T09:57:23.026Z,19.70
2018-04-16T10:02:27.610Z,19.60
2018-04-16T10:12:35.890Z,20.00
2018-04-16T10:22:45.739Z,20.20
2018-04-16T10:27:48.834Z,20.40
2018-04-16T10:32:53.047Z,20.50
2018-04-16T10:37:56.890Z,20.00
2018-04-16T10:43:01.110Z,19.50
2018-04-16T10:48:04.205Z,19.60
2018-04-16T10:53:07.289Z,19.40
2018-04-16T11:03:15.953Z,19.60
2018-04-16T11:08:19.496Z,19.40
2018-04-16T11:13:23.698Z,19.30
2018-04-16T11:18:27.931Z,19.20
2018-04-16T11:23:31.010Z,19.20
2018-04-16T11:28:34.934Z,19.10
2018-04-16T11:33:39.119Z,19.20
2018-04-16T11:38:42.978Z,19.20
2018-04-16T11:48:50.910Z,18.90
2018-04-16T11:58:58.431Z,18.50
2018-04-16T12:09:06.673Z,18.90
2018-04-16T12:14:10.159Z,19.20
2018-04-16T12:19:14.020Z,19.00
2018-04-16T12:24:17.130Z,18.70
2018-04-16T12:29:20.281Z,18.70
2018-04-16T12:34:24.118Z,18.80
2018-04-16T12:39:28.338Z,19.00
2018-04-16T12:44:32.177Z,18.90
2018-04-16T12:54:40.666Z,18.60
2018-04-16T13:04:48.202Z,18.80
2018-04-16T13:09:51.286Z,18.90
2018-04-16T13:14:55.134Z,18.70
2018-04-16T13:20:00.238Z,18.70
2018-04-16T13:25:04.128Z,18.70
2018-04-16T13:30:07.618Z,18.70
2018-04-16T13:35:11.106Z,18.70
2018-04-16T13:40:14.577Z,18.70
2018-04-16T13:45:18.054Z,18.70
2018-04-16T13:50:22.274Z,18.70
2018-04-16T14:00:30.214Z,18.50
2018-04-16T14:10:39.294Z,18.40
2018-04-16T14:15:42.371Z,18.40
2018-04-16T14:20:45.487Z,18.40
2018-04-16T14:25:48.580Z,18.40
2018-04-16T14:30:51.654Z,18.60
2018-04-16T14:35:55.912Z,18.80
2018-04-16T14:41:00.104Z,19.00
2018-04-16T14:46:03.970Z,18.90
2018-04-16T14:51:08.185Z,18.80
2018-04-16T14:56:11.691Z,18.50
2018-04-16T15:01:15.535Z,18.50
2018-04-16T15:06:19.382Z,18.60
2018-04-16T15:16:26.883Z,18.30
2018-04-16T15:21:29.986Z,18.20
2018-04-16T15:26:33.062Z,18.00
2018-04-16T15:31:36.559Z,18.00
2018-04-16T15:36:40.421Z,18.20
2018-04-16T15:41:43.508Z,18.30
2018-04-16T15:46:47.745Z,18.40
2018-04-16T15:51:51.587Z,18.40
2018-04-16T15:56:54.671Z,18.30
2018-04-16T16:01:57.763Z,18.20
2018-04-16T16:07:00.847Z,18.10
2018-04-16T16:17:09.494Z,18.00
2018-04-16T16:22:13.364Z,17.90
2018-04-16T16:32:20.890Z,17.60
2018-04-16T16:42:29.919Z,17.40
2018-04-16T16:47:33.767Z,17.40
2018-04-16T16:52:36.846Z,17.40
2018-04-16T16:57:39.938Z,17.40
2018-04-16T17:07:48.239Z,17.20
2018-04-16T17:17:55.754Z,16.90
2018-04-16T17:22:58.855Z,16.90
2018-04-16T17:28:02.056Z,16.70
2018-04-16T17:33:05.929Z,16.70
2018-04-16T17:38:17.822Z,16.70
2018-04-16T17:43:21.454Z,16.70
2018-04-16T17:48:26.971Z,16.60
2018-04-16T17:53:30.883Z,16.60
2018-04-16T17:58:35.888Z,16.60
2018-04-16T18:03:39.947Z,16.50
2018-04-16T18:08:43.179Z,16.20
2018-04-16T18:13:48.320Z,16.00
2018-04-16T18:18:52.467Z,15.70
2018-04-16T18:23:57.959Z,15.60
2018-04-16T18:29:01.031Z,15.40
2018-04-16T18:34:04.884Z,15.20
2018-04-16T18:39:12.754Z,14.90
2018-04-16T18:44:15.978Z,14.80
2018-04-16T18:49:19.483Z,14.60
2018-04-16T18:54:23.515Z,14.40
2018-04-16T18:59:27.701Z,14.20
2018-04-16T19:04:30.902Z,14.10
2018-04-16T19:09:34.101Z,13.90
2018-04-16T19:14:37.367Z,13.80
2018-04-16T19:19:40.643Z,13.60
2018-04-16T19:24:45.420Z,13.40
2018-04-16T19:29:49.001Z,13.40
2018-04-16T19:34:58.343Z,13.30
2018-04-16T19:40:01.541Z,13.10
2018-04-16T19:45:05.120Z,13.00
2018-04-16T19:50:09.125Z,12.90
2018-04-16T19:55:12.270Z,12.80
2018-04-16T20:00:15.904Z,12.70
2018-04-16T20:05:19.476Z,12.50
2018-04-16T20:10:24.582Z,12.50
2018-04-16T20:15:27.769Z,12.40
2018-04-16T20:20:31.710Z,12.40
2018-04-16T20:25:34.888Z,12.30
2018-04-16T20:30:38.948Z,12.20
2018-04-16T20:35:42.912Z,12.10
2018-04-16T20:40:46.223Z,11.90
2018-04-16T20:45:49.421Z,11.80
2018-04-16T20:50:53.342Z,11.80
2018-04-16T20:55:57.295Z,11.70
2018-04-16T21:01:00.468Z,11.60
2018-04-16T21:06:20.906Z,11.50
2018-04-16T21:11:25.230Z,11.50
2018-04-16T21:16:29.883Z,11.40
2018-04-16T21:21:33.058Z,11.30
2018-04-16T21:26:36.243Z,11.20
2018-04-16T21:31:39.427Z,11.10
2018-04-16T21:36:42.638Z,11.10
2018-04-16T21:42:01.207Z,11.00
2018-04-16T21:47:04.421Z,10.90
2018-04-16T21:52:07.546Z,10.90
2018-04-16T21:57:11.118Z,10.80
2018-04-16T22:02:14.978Z,10.70
2018-04-16T22:07:18.066Z,10.60
2018-04-16T22:12:21.147Z,10.50
2018-04-16T22:17:24.991Z,10.50
2018-04-16T22:22:28.090Z,10.40
2018-04-16T22:27:32.306Z,10.40
2018-04-16T22:32:35.403Z,10.40
2018-04-16T22:37:38.590Z,10.30
2018-04-16T22:42:41.813Z,10.20
2018-04-16T22:47:44.939Z,10.20
2018-04-16T22:52:48.880Z,10.10
2018-04-16T22:57:52.844Z,10.00
2018-04-16T23:02:55.995Z,9.90
2018-04-16T23:07:59.177Z,9.80
2018-04-16T23:13:02.319Z,9.70
2018-04-16T23:18:05.487Z,9.70
2018-04-16T23:23:08.671Z,9.60
2018-04-16T23:28:12.232Z,9.50
2018-04-16T23:33:15.403Z,9.50
2018-04-16T23:38:18.563Z,9.30
2018-04-16T23:43:22.863Z,9.20
2018-04-16T23:48:26.468Z,9.20
2018-04-16T23:53:30.435Z,9.20
2018-04-16T23:58:33.583Z,9.10
